EFKK/KOK METAR and TAF weather

Enter ICAO airport designator
Station Type Date Time Source
EFKK METAR 2022/07/01 01:50 UTC NOAA

EFKK 010150Z AUTO 14002KT CAVOK 13/11 Q1020


Station Type Date Time Source
EFKK Decoded METAR 2022/07/01 01:50 UTC NOAA

Kruunupyy, Finland (EFKK) 63-43N 023-09E
Jun 30, 2022 - 09:50 PM EDT / 2022.07.01 0150 UTC
Wind: from the SE (140 degrees) at 2 MPH (2 KT):0
Visibility: greater than 7 mile(s):0
Temperature: 55 F (13 C)
Dew Point: 51 F (11 C)
Relative Humidity: 87%
Pressure (altimeter): 30.12 in. Hg (1020 hPa)
ob: EFKK 010150Z AUTO 14002KT CAVOK 13/11 Q1020
cycle: 2

Station Type Date Time Source
EFKK TAF 2019/04/22 21:42 UTC NOAA

TAF EFKK 222023Z 2221/2321 18006KT CAVOK

Example: see airport list